MDT,Max TemperatureF,Mean TemperatureF,Min TemperatureF,Max Dew PointF,MeanDew PointF,Min DewpointF,Max Humidity, Mean Humidity, Min Humidity, Max Sea Level PressureIn, Mean Sea Level PressureIn, Min Sea Level PressureIn, Max VisibilityMiles, Mean VisibilityMiles, Min VisibilityMiles, Max Wind SpeedMPH, Mean Wind SpeedMPH, Max Gust SpeedMPH,PrecipitationIn, CloudCover, Events, WindDirDegrees
2013-4-1,44,32,20,22,17,13,77,62,36,30.33,30.29,30.23,10,10,10,12,4,15,0.00,4,,34
2013-4-2,54,34,14,23,19,11,85,56,28,30.26,30.20,30.12,10,10,10,12,4,16,0.00,0,,128
2013-4-3,71,47,23,34,25,20,69,49,23,30.17,30.02,29.89,10,10,10,33,14,41,0.00,2,,303
2013-4-4,45,33,20,27,23,16,84,69,49,30.30,30.21,30.11,10,9,1,20,9,26,T,5,Snow,57
2013-4-5,57,41,27,41,26,21,93,62,31,30.07,29.83,29.66,10,10,6,25,13,30,0.00,5,Rain,137
2013-4-6,63,47,31,45,37,28,93,68,35,29.86,29.74,29.67,10,10,8,24,14,30,0.00,3,Rain,316
2013-4-7,63,47,31,41,33,27,92,76,27,29.86,29.72,29.61,10,8,6,16,9,21,T,6,,143
2013-4-8,44,29,13,36,22,7,92,86,76,30.39,29.95,29.66,10,3,0,29,18,35,0.24,8,Fog-Rain-Snow,35
2013-4-9,24,18,11,17,9,6,83,75,60,30.54,30.43,30.27,10,6,2,22,13,29,T,7,Snow,351
2013-4-10,38,30,21,20,17,15,84,66,44,30.38,30.24,30.03,10,10,10,18,7,21,0.00,8,,17
2013-4-11,42,31,20,24,20,16,88,69,44,30.02,29.91,29.84,10,10,9,15,7,20,0.00,7,,64
2013-4-12,41,31,20,29,24,19,88,70,52,30.00,29.95,29.90,10,10,10,20,7,24,T,8,,330
2013-4-13,48,32,16,29,22,12,100,85,49,29.96,29.74,29.51,10,4,0,31,18,38,0.03,5,Fog-Rain-Snow,103
2013-4-14,27,26,24,27,21,19,92,86,81,29.81,29.59,29.47,10,3,0,28,18,35,0.13,8,Fog-Snow,31
2013-4-15,34,27,19,23,21,17,92,80,63,30.17,29.91,29.71,10,8,2,24,16,30,T,7,Snow,315
2013-4-16,31,24,17,23,20,14,92,81,63,30.40,30.26,30.04,10,8,2,17,7,21,0.01,7,Snow,35
2013-4-17,31,27,22,23,21,19,96,79,63,30.39,30.29,30.19,10,7,2,18,9,22,T,8,Snow,358
2013-4-18,38,28,18,19,16,12,84,65,38,30.26,30.17,30.06,10,10,10,26,12,31,T,3,,325
2013-4-19,41,32,23,27,19,13,92,66,34,30.11,30.03,29.92,10,9,2,17,9,22,T,6,Snow,35
2013-4-20,34,29,24,30,24,15,100,82,63,30.07,29.99,29.89,10,5,0,24,15,31,0.01,8,Fog-Snow,143
2013-4-21,43,37,30,37,29,21,92,77,45,30.26,30.04,29.86,10,8,0,25,14,32,T,7,Fog-Rain-Snow,319
2013-4-22,37,23,9,22,15,8,84,61,38,30.49,30.40,30.22,10,10,9,21,12,32,T,5,,3
2013-4-23,48,30,12,24,14,7,84,50,25,30.45,30.23,30.06,10,10,10,21,10,26,0.00,2,,276
2013-4-24,45,34,22,30,23,14,85,69,30,30.14,30.05,29.96,10,7,1,38,16,48,T,5,Snow,306
2013-4-25,67,46,24,27,22,16,75,46,18,30.10,29.92,29.80,10,10,10,23,9,30,0.00,2,,205
2013-4-26,73,48,22,30,24,21,81,40,14,30.09,30.04,29.97,10,10,10,16,5,24,0.00,0,,255
2013-4-27,78,60,42,33,29,24,54,33,15,30.01,29.86,29.71,10,10,10,25,10,32,0.00,0,,266
2013-4-28,68,54,39,35,29,24,54,37,22,29.89,29.82,29.70,10,10,10,28,12,33,0.00,1,,350
2013-4-29,69,54,38,42,37,25,89,59,26,29.84,29.59,29.42,10,10,8,30,13,38,0.15,3,Rain-Thunderstorm,235
2013-4-30,51,35,19,41,27,17,76,57,33,30.24,29.83,29.56,10,10,8,40,23,49,0.00,4,Rain,296